Time;durP1;ratioP1;P1;durP2;ratioP2;P2;SDS_P1;SDS_P2;PMS_P1;PMS_P2;Temp;Humidity;BMP_temperature;BMP_pressure;BME280_temperature;BME280_humidity;BME280_pressure;Samples;Min_cycle;Max_cycle;Signal;HPM_P1;HPM_P2
2022/06/25 00:01:08;;;;;;;;;;;;;;;;;;4945925;28;135869;-63
2022/06/25 00:03:34;;;;;;;;;;;;;;;;;;4939892;28;127690;-62
2022/06/25 00:06:01;;;;;;;;;;;;;;;;;;4950086;28;123153;-62
2022/06/25 00:08:27;;;;;;;;;;;;;;;;;;4944682;28;135672;-62
2022/06/25 00:10:53;;;;;;;;;;;;;;;;;;4946678;28;107719;-62
2022/06/25 00:13:20;;;;;;;;;;;;;;;;;;4937706;28;122926;-62
2022/06/25 00:15:46;;;;;;;;;;;;;;;;;;4947443;28;126347;-62
2022/06/25 00:18:12;;;;;;;;;;;;;;;;;;4943895;28;113531;-62
2022/06/25 00:20:39;;;;;;;;;;;;;;;;;;4937923;28;132619;-62
2022/06/25 00:23:10;;;;;;;;;;;;;;;;;;4943657;28;138248;-62
2022/06/25 00:25:36;;;;;;;;;;;;;;;;;;4948581;28;113937;-63
2022/06/25 00:28:02;;;;;;;;;;;;;;;;;;4944701;28;113602;-62
2022/06/25 00:30:29;;;;;;;;;;;;;;;;;;4931283;28;107902;-62
2022/06/25 00:32:55;;;;;;;;;;;;;;;;;;4948476;28;107203;-62
2022/06/25 00:35:22;;;;;;;;;;;;;;;;;;4944856;28;116694;-63
2022/06/25 00:37:48;;;;;;;;;;;;;;;;;;4948020;28;136847;-63
2022/06/25 00:40:14;;;;;;;;;;;;;;;;;;4948242;28;120793;-62
2022/06/25 00:42:40;;;;;;;;;;;;;;;;;;4938514;28;133135;-62
2022/06/25 00:45:07;;;;;;;;;;;;;;;;;;4945255;28;122674;-62
2022/06/25 00:47:34;;;;;;;;;;;;;;;;;;4936101;28;107479;-62
2022/06/25 00:50:00;;;;;;;;;;;;;;;;;;4937976;28;109709;-62
2022/06/25 00:52:27;;;;;;;;;;;;;;;;;;4930742;28;106266;-62
2022/06/25 00:54:53;;;;;;;;;;;;;;;;;;4930113;28;131583;-62
2022/06/25 00:57:20;;;;;;;;;;;;;;;;;;4936263;28;109506;-62
2022/06/25 00:59:46;;;;;;;;;;;;;;;;;;4951656;28;106766;-62
2022/06/25 01:02:13;;;;;;;;;;;;;;;;;;4932750;28;107780;-62
2022/06/25 01:04:39;;;;;;;;;;;;;;;;;;4942434;28;107540;-62
2022/06/25 01:07:06;;;;;;;;;;;;;;;;;;4942134;28;108772;-62
2022/06/25 01:09:32;;;;;;;;;;;;;;;;;;4931820;28;109024;-62
2022/06/25 01:11:59;;;;;;;;;;;;;;;;;;4971024;22;108271;-76
2022/06/25 01:14:25;;;;;;;;;;;;;;;;;;5008700;27;105915;-76
2022/06/25 01:16:51;;;;;;;;;;;;;;;;;;5007248;28;108968;-76
2022/06/25 01:19:18;;;;;;;;;;;;;;;;;;5007594;27;122377;-76
2022/06/25 01:21:44;;;;;;;;;;;;;;;;;;5022352;27;109138;-75
2022/06/25 01:24:11;;;;;;;;;;;;;;;;;;5005305;27;122662;-75
2022/06/25 01:26:39;;;;;;;;;;;;;;;;;;5008614;27;129193;-75
2022/06/25 01:29:05;;;;;;;;;;;;;;;;;;5003045;28;132473;-76
2022/06/25 01:31:31;;;;;;;;;;;;;;;;;;5007102;28;123852;-77
2022/06/25 01:33:58;;;;;;;;;;;;;;;;;;5003127;27;108413;-75
2022/06/25 01:36:24;;;;;;;;;;;;;;;;;;5000241;28;131716;-75
2022/06/25 01:38:50;;;;;;;;;;;;;;;;;;5002435;28;122019;-75
2022/06/25 01:41:17;;;;;;;;;;;;;;;;;;5005105;28;117914;-76
2022/06/25 01:43:43;;;;;;;;;;;;;;;;;;5007424;28;109162;-75
2022/06/25 01:46:09;;;;;;;;;;;;;;;;;;5006564;28;134690;-75
2022/06/25 01:48:38;;;;;;;;;;;;;;;;;;5002698;28;108598;-76
2022/06/25 01:51:04;;;;;;;;;;;;;;;;;;4995275;28;122507;-75
2022/06/25 01:53:30;;;;;;;;;;;;;;;;;;5006134;28;108376;-75
2022/06/25 01:55:57;;;;;;;;;;;;;;;;;;5001914;28;123355;-75
2022/06/25 01:58:23;;;;;;;;;;;;;;;;;;5008196;27;106265;-75
2022/06/25 02:00:49;;;;;;;;;;;;;;;;;;5006948;28;108285;-75
2022/06/25 02:03:16;;;;;;;;;;;;;;;;;;5006080;28;133857;-76
2022/06/25 02:05:58;;;;;;;;;;;;;;;;;;5014141;28;107445;-75
2022/06/25 02:08:25;;;;;;;;;;;;;;;;;;5004337;28;107752;-75
2022/06/25 02:10:51;;;;;;;;;;;;;;;;;;5010504;28;106978;-75
2022/06/25 02:13:17;;;;;;;;;;;;;;;;;;5009801;28;134213;-76
2022/06/25 02:15:44;;;;;;;;;;;;;;;;;;5008183;28;136087;-75
2022/06/25 02:18:10;;;;;;;;;;;;;;;;;;5011971;28;113874;-75
2022/06/25 02:20:37;;;;;;;;;;;;;;;;;;5005081;28;107288;-75
2022/06/25 02:23:04;;;;;;;;;;;;;;;;;;5010473;28;131465;-69
2022/06/25 02:25:30;;;;;;;;;;;;;;;;;;5007987;28;106943;-75
2022/06/25 02:27:58;;;;;;;;;;;;;;;;;;5005015;27;106437;-75
2022/06/25 02:30:24;;;;;;;;;;;;;;;;;;5006543;27;118827;-75
2022/06/25 02:32:51;;;;;;;;;;;;;;;;;;5006190;28;107206;-74
2022/06/25 02:35:18;;;;;;;;;;;;;;;;;;5000950;28;126602;-76
2022/06/25 02:37:44;;;;;;;;;;;;;;;;;;5004427;27;116503;-76
2022/06/25 02:40:13;;;;;;;;;;;;;;;;;;5011145;28;108134;-75
2022/06/25 02:42:41;;;;;;;;;;;;;;;;;;5010722;28;109156;-75
2022/06/25 02:45:07;;;;;;;;;;;;;;;;;;5011008;27;106859;-75
2022/06/25 02:47:36;;;;;;;;;;;;;;;;;;5021930;27;108290;-75
2022/06/25 02:50:07;;;;;;;;;;;;;;;;;;4995384;28;106095;-75
2022/06/25 02:52:35;;;;;;;;;;;;;;;;;;5006034;28;107571;-75
2022/06/25 02:55:02;;;;;;;;;;;;;;;;;;5013299;27;108579;-74
2022/06/25 03:00:22;;;;;;;;;;;;;;;;;;5005978;28;108387;-75
2022/06/25 03:02:49;;;;;;;;;;;;;;;;;;5005756;28;122031;-75
2022/06/25 03:05:15;;;;;;;;;;;;;;;;;;5005970;28;106308;-75
2022/06/25 03:07:41;;;;;;;;;;;;;;;;;;4996638;27;106663;-76
2022/06/25 03:10:08;;;;;;;;;;;;;;;;;;5012877;27;107250;-75
2022/06/25 03:12:35;;;;;;;;;;;;;;;;;;5003704;28;107871;-75
2022/06/25 03:15:14;;;;;;;;;;;;;;;;;;5007270;28;109736;-75
2022/06/25 03:17:42;;;;;;;;;;;;;;;;;;5006991;28;106204;-76
2022/06/25 03:20:37;;;;;;;;;;;;;;;;;;4969392;28;106405;-75
2022/06/25 03:23:05;;;;;;;;;;;;;;;;;;4990109;28;108278;-76
2022/06/25 03:25:32;;;;;;;;;;;;;;;;;;5006774;28;107263;-76
2022/06/25 03:28:02;;;;;;;;;;;;;;;;;;4999671;27;107795;-75
2022/06/25 03:30:30;;;;;;;;;;;;;;;;;;5007083;28;110099;-75
2022/06/25 03:32:57;;;;;;;;;;;;;;;;;;5013869;28;106136;-76
2022/06/25 03:35:35;;;;;;;;;;;;;;;;;;5010507;28;106263;-75
2022/06/25 03:38:11;;;;;;;;;;;;;;;;;;5007916;27;106168;-75
2022/06/25 03:40:39;;;;;;;;;;;;;;;;;;5008578;28;108453;-75
2022/06/25 03:43:06;;;;;;;;;;;;;;;;;;5000883;27;109360;-75
2022/06/25 03:45:35;;;;;;;;;;;;;;;;;;5001938;28;107555;-75
2022/06/25 03:48:02;;;;;;;;;;;;;;;;;;5010453;28;108389;-75
2022/06/25 03:50:34;;;;;;;;;;;;;;;;;;5007477;27;108784;-76
2022/06/25 03:53:01;;;;;;;;;;;;;;;;;;5009324;28;106580;-76
2022/06/25 03:55:27;;;;;;;;;;;;;;;;;;5009265;28;122886;-76
2022/06/25 03:58:14;;;;;;;;;;;;;;;;;;5016534;27;106360;-76
2022/06/25 04:00:40;;;;;;;;;;;;;;;;;;5009141;27;106689;-76
2022/06/25 04:03:06;;;;;;;;;;;;;;;;;;5000921;28;135588;-75
2022/06/25 04:05:51;;;;;;;;;;;;;;;;;;5006915;28;106547;-76
2022/06/25 04:08:36;;;;;;;;;;;;;;;;;;5008871;28;108618;-75
2022/06/25 04:11:05;;;;;;;;;;;;;;;;;;5005962;27;107623;-75
2022/06/25 04:13:33;;;;;;;;;;;;;;;;;;5008050;28;106199;-75
2022/06/25 04:16:00;;;;;;;;;;;;;;;;;;5008393;28;127158;-75
2022/06/25 04:18:27;;;;;;;;;;;;;;;;;;5008465;28;107879;-75
2022/06/25 04:20:53;;;;;;;;;;;;;;;;;;5001021;27;106752;-75
2022/06/25 04:23:20;;;;;;;;;;;;;;;;;;5008592;28;121329;-75
2022/06/25 04:25:46;;;;;;;;;;;;;;;;;;5008718;28;109022;-75
2022/06/25 04:31:07;;;;;;;;;;;;;;;;;;5005286;27;109124;-75
2022/06/25 04:33:34;;;;;;;;;;;;;;;;;;5008599;28;106915;-70
2022/06/25 04:36:04;;;;;;;;;;;;;;;;;;5009914;28;109308;-73
2022/06/25 04:38:43;;;;;;;;;;;;;;;;;;5000638;28;108837;-75
2022/06/25 04:41:09;;;;;;;;;;;;;;;;;;4991220;28;108621;-76
2022/06/25 04:43:36;;;;;;;;;;;;;;;;;;5002526;28;109487;-75
2022/06/25 04:46:08;;;;;;;;;;;;;;;;;;5024714;27;106046;-75
2022/06/25 04:48:39;;;;;;;;;;;;;;;;;;5003884;28;108057;-75
2022/06/25 04:51:24;;;;;;;;;;;;;;;;;;4999576;28;107861;-74
2022/06/25 04:53:58;;;;;;;;;;;;;;;;;;4997035;27;106376;-75
2022/06/25 04:56:48;;;;;;;;;;;;;;;;;;5009396;27;108816;-75
2022/06/25 04:59:18;;;;;;;;;;;;;;;;;;5022441;27;134276;-75
2022/06/25 05:02:13;;;;;;;;;;;;;;;;;;4993170;28;107280;-75
2022/06/25 05:04:51;;;;;;;;;;;;;;;;;;5007654;27;108673;-74
2022/06/25 05:07:17;;;;;;;;;;;;;;;;;;5010198;27;106074;-74
2022/06/25 05:09:43;;;;;;;;;;;;;;;;;;5004707;27;112610;-75
2022/06/25 05:13:11;;;;;;;;;;;;;;;;;;5023171;27;108668;-74
2022/06/25 05:14:59;;;;;;;;;;;;;;;;;;5007724;28;125652;-74
2022/06/25 05:17:25;;;;;;;;;;;;;;;;;;5007103;28;130347;-74
2022/06/25 05:19:51;;;;;;;;;;;;;;;;;;5003123;28;138063;-74
2022/06/25 05:22:18;;;;;;;;;;;;;;;;;;5020430;27;106075;-74
2022/06/25 05:24:44;;;;;;;;;;;;;;;;;;5010604;28;107825;-75
2022/06/25 05:27:10;;;;;;;;;;;;;;;;;;5005181;28;107526;-75
2022/06/25 05:29:37;;;;;;;;;;;;;;;;;;4998338;28;129742;-72
2022/06/25 05:32:03;;;;;;;;;;;;;;;;;;5008951;27;124846;-70
2022/06/25 05:34:29;;;;;;;;;;;;;;;;;;5005766;28;106971;-73
2022/06/25 05:36:56;;;;;;;;;;;;;;;;;;5007353;27;133929;-74
2022/06/25 05:39:22;;;;;;;;;;;;;;;;;;5007187;28;131245;-73
2022/06/25 05:41:48;;;;;;;;;;;;;;;;;;5012965;27;117842;-73
2022/06/25 05:44:14;;;;;;;;;;;;;;;;;;5004469;28;118513;-73
2022/06/25 05:46:41;;;;;;;;;;;;;;;;;;5011629;28;137971;-74
2022/06/25 05:49:07;;;;;;;;;;;;;;;;;;5005287;28;110960;-74
2022/06/25 05:51:34;;;;;;;;;;;;;;;;;;5007653;28;138037;-69
2022/06/25 05:54:00;;;;;;;;;;;;;;;;;;4998198;27;117353;-73
2022/06/25 05:56:26;;;;;;;;;;;;;;;;;;5005183;28;127964;-73
2022/06/25 05:58:52;;;;;;;;;;;;;;;;;;5003820;28;135793;-73
2022/06/25 06:01:19;;;;;;;;;;;;;;;;;;5002236;28;123174;-74
2022/06/25 06:03:45;;;;;;;;;;;;;;;;;;5002954;28;135097;-74
2022/06/25 06:06:11;;;;;;;;;;;;;;;;;;5002983;27;108055;-74
2022/06/25 06:08:38;;;;;;;;;;;;;;;;;;5006371;28;107608;-74
2022/06/25 06:11:04;;;;;;;;;;;;;;;;;;5005963;28;120104;-74
2022/06/25 06:13:30;;;;;;;;;;;;;;;;;;5001990;28;117669;-73
2022/06/25 06:15:57;;;;;;;;;;;;;;;;;;4998488;27;134197;-73
2022/06/25 06:18:23;;;;;;;;;;;;;;;;;;5001228;28;125919;-73
2022/06/25 06:20:49;;;;;;;;;;;;;;;;;;5003630;28;120982;-74
2022/06/25 06:23:16;;;;;;;;;;;;;;;;;;5025404;27;121932;-74
2022/06/25 06:25:42;;;;;;;;;;;;;;;;;;5007077;27;108773;-74
2022/06/25 06:28:08;;;;;;;;;;;;;;;;;;5012003;28;107203;-74
2022/06/25 06:30:35;;;;;;;;;;;;;;;;;;5004035;28;138485;-73
2022/06/25 06:33:02;;;;;;;;;;;;;;;;;;5003166;28;106055;-74
2022/06/25 06:35:28;;;;;;;;;;;;;;;;;;4999603;27;135263;-74
2022/06/25 06:37:55;;;;;;;;;;;;;;;;;;5008213;28;135539;-74
2022/06/25 06:40:21;;;;;;;;;;;;;;;;;;4999507;27;122500;-68
2022/06/25 06:42:47;;;;;;;;;;;;;;;;;;5000348;27;134823;-74
2022/06/25 06:45:13;;;;;;;;;;;;;;;;;;5004379;28;126572;-74
2022/06/25 06:47:40;;;;;;;;;;;;;;;;;;4998288;27;117796;-75
2022/06/25 06:50:06;;;;;;;;;;;;;;;;;;5001658;27;108526;-71
2022/06/25 06:52:32;;;;;;;;;;;;;;;;;;5005811;28;107580;-70
2022/06/25 06:55:01;;;;;;;;;;;;;;;;;;4999363;28;130152;-71
2022/06/25 06:57:28;;;;;;;;;;;;;;;;;;5006298;28;130767;-70
2022/06/25 06:59:54;;;;;;;;;;;;;;;;;;5004254;27;124077;-72
2022/06/25 07:02:20;;;;;;;;;;;;;;;;;;5004337;27;136604;-71
2022/06/25 07:04:47;;;;;;;;;;;;;;;;;;5001322;28;108617;-72
2022/06/25 07:07:13;;;;;;;;;;;;;;;;;;5005165;28;122068;-71
2022/06/25 07:09:39;;;;;;;;;;;;;;;;;;5007413;28;135446;-72
2022/06/25 07:12:06;;;;;;;;;;;;;;;;;;5004893;27;137062;-74
2022/06/25 07:14:32;;;;;;;;;;;;;;;;;;4997220;28;113011;-77
2022/06/25 07:16:59;;;;;;;;;;;;;;;;;;5004669;28;106710;-71
2022/06/25 07:19:25;;;;;;;;;;;;;;;;;;4995002;28;122113;-71
2022/06/25 07:21:54;;;;;;;;;;;;;;;;;;5004843;27;121173;-71
2022/06/25 07:24:20;;;;;;;;;;;;;;;;;;5009813;27;135272;-71
2022/06/25 07:26:47;;;;;;;;;;;;;;;;;;5009648;28;124009;-71
2022/06/25 07:29:13;;;;;;;;;;;;;;;;;;5008436;28;129416;-71
2022/06/25 07:31:39;;;;;;;;;;;;;;;;;;5008922;28;136544;-71
2022/06/25 07:34:10;;;;;;;;;;;;;;;;;;5005832;27;121426;-74
2022/06/25 07:36:36;;;;;;;;;;;;;;;;;;5007312;27;121890;-69
2022/06/25 07:39:02;;;;;;;;;;;;;;;;;;4997972;27;126224;-70
2022/06/25 07:41:29;;;;;;;;;;;;;;;;;;5006389;27;106244;-67
2022/06/25 07:43:55;;;;;;;;;;;;;;;;;;5006111;28;127347;-67
2022/06/25 07:46:21;;;;;;;;;;;;;;;;;;5010246;28;124090;-67
2022/06/25 07:48:48;;;;;;;;;;;;;;;;;;5006894;28;123619;-67
2022/06/25 07:53:59;;;;;;;;;;;;;;;;;;5008179;28;106579;-67
2022/06/25 07:56:25;;;;;;;;;;;;;;;;;;5006863;28;124523;-67
2022/06/25 07:58:51;;;;;;;;;;;;;;;;;;5003710;27;119798;-69
2022/06/25 08:01:18;;;;;;;;;;;;;;;;;;5008428;28;135570;-71
2022/06/25 08:03:44;;;;;;;;;;;;;;;;;;5002481;27;108582;-73
2022/06/25 08:06:12;;;;;;;;;;;;;;;;;;5004665;28;125598;-73
2022/06/25 08:08:39;;;;;;;;;;;;;;;;;;4999411;27;136385;-72
2022/06/25 08:11:05;;;;;;;;;;;;;;;;;;5007480;27;126667;-72
2022/06/25 08:13:32;;;;;;;;;;;;;;;;;;5003398;28;111886;-71
2022/06/25 08:15:59;;;;;;;;;;;;;;;;;;5010916;28;122308;-71
2022/06/25 08:18:26;;;;;;;;;;;;;;;;;;5012890;27;108757;-70
2022/06/25 08:20:52;;;;;;;;;;;;;;;;;;5005773;27;107012;-71
2022/06/25 08:23:18;;;;;;;;;;;;;;;;;;5004555;28;109282;-71
2022/06/25 08:25:45;;;;;;;;;;;;;;;;;;5005502;28;106251;-71
2022/06/25 08:28:11;;;;;;;;;;;;;;;;;;4999537;27;118115;-71
2022/06/25 08:30:41;;;;;;;;;;;;;;;;;;5007571;28;118925;-71
2022/06/25 08:33:08;;;;;;;;;;;;;;;;;;5000620;27;107741;-71
2022/06/25 08:35:34;;;;;;;;;;;;;;;;;;5009937;27;106860;-71
2022/06/25 08:38:02;;;;;;;;;;;;;;;;;;5011692;28;120221;-71
2022/06/25 08:40:28;;;;;;;;;;;;;;;;;;5008583;27;107238;-71
2022/06/25 08:42:54;;;;;;;;;;;;;;;;;;5005030;27;107442;-71
2022/06/25 08:45:21;;;;;;;;;;;;;;;;;;5006715;27;122795;-68
2022/06/25 08:47:47;;;;;;;;;;;;;;;;;;4998854;28;121912;-71
2022/06/25 08:50:16;;;;;;;;;;;;;;;;;;5005306;28;117599;-72
2022/06/25 08:52:43;;;;;;;;;;;;;;;;;;5008059;27;105889;-71
2022/06/25 08:55:09;;;;;;;;;;;;;;;;;;5007451;27;136121;-71
2022/06/25 08:57:35;;;;;;;;;;;;;;;;;;5005040;28;132774;-71
2022/06/25 09:00:03;;;;;;;;;;;;;;;;;;5011742;28;106426;-71
2022/06/25 09:02:30;;;;;;;;;;;;;;;;;;5006326;27;122905;-71
2022/06/25 09:04:56;;;;;;;;;;;;;;;;;;4996517;27;123943;-70
2022/06/25 09:07:22;;;;;;;;;;;;;;;;;;5005186;28;129030;-71
2022/06/25 09:09:52;;;;;;;;;;;;;;;;;;5004719;28;127885;-70
2022/06/25 09:12:18;;;;;;;;;;;;;;;;;;5003312;27;110808;-71
2022/06/25 09:14:44;;;;;;;;;;;;;;;;;;5002685;28;126460;-70
2022/06/25 09:17:12;;;;;;;;;;;;;;;;;;5003540;28;130383;-70
2022/06/25 09:19:39;;;;;;;;;;;;;;;;;;5000823;27;107220;-71
2022/06/25 09:22:05;;;;;;;;;;;;;;;;;;5009244;27;132825;-71
2022/06/25 09:24:31;;;;;;;;;;;;;;;;;;5005799;28;111797;-71
2022/06/25 09:26:58;;;;;;;;;;;;;;;;;;5005470;28;137736;-70
2022/06/25 09:29:24;;;;;;;;;;;;;;;;;;5007247;28;127524;-70
2022/06/25 09:31:50;;;;;;;;;;;;;;;;;;5005670;28;119163;-71
2022/06/25 09:34:16;;;;;;;;;;;;;;;;;;5000182;27;128172;-70
2022/06/25 09:36:43;;;;;;;;;;;;;;;;;;5001519;28;137278;-70
2022/06/25 09:39:09;;;;;;;;;;;;;;;;;;5006508;28;107409;-71
2022/06/25 09:41:37;;;;;;;;;;;;;;;;;;4995927;28;135390;-67
2022/06/25 09:44:04;;;;;;;;;;;;;;;;;;5008712;27;135311;-69
2022/06/25 09:46:30;;;;;;;;;;;;;;;;;;5009379;28;135809;-67
2022/06/25 09:48:56;;;;;;;;;;;;;;;;;;5005814;27;132820;-67
2022/06/25 09:51:23;;;;;;;;;;;;;;;;;;5001012;28;106724;-67
2022/06/25 09:53:50;;;;;;;;;;;;;;;;;;5009781;27;107234;-67
2022/06/25 09:56:16;;;;;;;;;;;;;;;;;;4995776;27;138168;-67
2022/06/25 09:58:42;;;;;;;;;;;;;;;;;;5001456;28;122917;-67
2022/06/25 10:01:09;;;;;;;;;;;;;;;;;;4995115;27;137337;-67
2022/06/25 10:03:35;;;;;;;;;;;;;;;;;;5005374;27;106457;-68
2022/06/25 10:06:03;;;;;;;;;;;;;;;;;;5005077;28;122967;-67
2022/06/25 10:08:29;;;;;;;;;;;;;;;;;;5008991;27;106589;-66
2022/06/25 10:10:56;;;;;;;;;;;;;;;;;;5006275;27;106672;-66
2022/06/25 10:13:22;;;;;;;;;;;;;;;;;;5005893;28;114204;-66
2022/06/25 10:15:48;;;;;;;;;;;;;;;;;;5004609;28;135779;-67
2022/06/25 10:18:15;;;;;;;;;;;;;;;;;;5004881;27;113838;-67
2022/06/25 10:20:41;;;;;;;;;;;;;;;;;;5004608;28;135578;-66
2022/06/25 10:23:07;;;;;;;;;;;;;;;;;;5002558;28;110005;-68
2022/06/25 10:25:34;;;;;;;;;;;;;;;;;;4997605;27;107098;-68
2022/06/25 10:28:00;;;;;;;;;;;;;;;;;;5013234;27;107355;-70
2022/06/25 10:30:27;;;;;;;;;;;;;;;;;;4999354;28;107916;-67
2022/06/25 10:32:53;;;;;;;;;;;;;;;;;;5005860;27;135757;-68
2022/06/25 10:35:20;;;;;;;;;;;;;;;;;;5003318;27;137926;-66
2022/06/25 10:37:46;;;;;;;;;;;;;;;;;;5005624;28;114900;-67
2022/06/25 10:40:12;;;;;;;;;;;;;;;;;;5004584;28;119202;-67
2022/06/25 10:45:23;;;;;;;;;;;;;;;;;;4995659;27;124311;-67
2022/06/25 10:47:50;;;;;;;;;;;;;;;;;;5005994;28;135677;-67
2022/06/25 10:50:16;;;;;;;;;;;;;;;;;;5005010;28;106811;-68
2022/06/25 10:52:42;;;;;;;;;;;;;;;;;;5005885;28;130467;-67
2022/06/25 10:55:09;;;;;;;;;;;;;;;;;;4997935;27;130465;-67
2022/06/25 10:57:35;;;;;;;;;;;;;;;;;;4999566;27;110966;-67
2022/06/25 11:00:02;;;;;;;;;;;;;;;;;;5010253;28;130782;-67
2022/06/25 11:02:28;;;;;;;;;;;;;;;;;;5000300;27;138360;-67
2022/06/25 11:04:55;;;;;;;;;;;;;;;;;;5007813;27;123654;-67
2022/06/25 11:07:21;;;;;;;;;;;;;;;;;;5005339;27;107163;-67
2022/06/25 11:09:48;;;;;;;;;;;;;;;;;;5007570;28;117952;-67
2022/06/25 11:12:14;;;;;;;;;;;;;;;;;;5005099;28;136385;-67
2022/06/25 11:14:40;;;;;;;;;;;;;;;;;;5006157;28;125119;-67
2022/06/25 11:17:06;;;;;;;;;;;;;;;;;;5004067;28;108020;-68
2022/06/25 11:19:36;;;;;;;;;;;;;;;;;;5003055;27;136343;-67
2022/06/25 11:22:02;;;;;;;;;;;;;;;;;;5002061;28;106696;-68
2022/06/25 11:24:28;;;;;;;;;;;;;;;;;;5004033;27;108170;-67
2022/06/25 11:29:39;;;;;;;;;;;;;;;;;;4996757;28;120526;-67
2022/06/25 11:32:06;;;;;;;;;;;;;;;;;;5007569;28;122262;-67
2022/06/25 11:34:33;;;;;;;;;;;;;;;;;;5006263;28;136480;-66
2022/06/25 11:37:00;;;;;;;;;;;;;;;;;;5003311;28;106824;-67
2022/06/25 11:39:26;;;;;;;;;;;;;;;;;;5011443;27;115896;-67
2022/06/25 11:41:53;;;;;;;;;;;;;;;;;;5002896;28;136089;-67
2022/06/25 11:44:19;;;;;;;;;;;;;;;;;;5006560;28;107748;-68
2022/06/25 11:46:45;;;;;;;;;;;;;;;;;;5005886;28;135662;-68
2022/06/25 11:49:12;;;;;;;;;;;;;;;;;;5007874;28;114362;-67
2022/06/25 11:51:38;;;;;;;;;;;;;;;;;;5009245;27;113231;-67
2022/06/25 11:54:04;;;;;;;;;;;;;;;;;;5008285;28;133811;-67
2022/06/25 11:56:31;;;;;;;;;;;;;;;;;;5008164;28;123447;-67
2022/06/25 11:58:57;;;;;;;;;;;;;;;;;;4997055;27;125011;-67
2022/06/25 12:01:23;;;;;;;;;;;;;;;;;;5007386;28;114525;-67
2022/06/25 12:03:50;;;;;;;;;;;;;;;;;;5009636;28;120423;-67
2022/06/25 12:06:16;;;;;;;;;;;;;;;;;;5005769;28;130579;-66
2022/06/25 12:08:42;;;;;;;;;;;;;;;;;;5004928;28;130490;-67
2022/06/25 12:11:09;;;;;;;;;;;;;;;;;;5006928;28;107605;-66
2022/06/25 12:13:35;;;;;;;;;;;;;;;;;;4997348;27;127423;-67
2022/06/25 12:16:01;;;;;;;;;;;;;;;;;;5013272;27;120486;-66
2022/06/25 12:18:28;;;;;;;;;;;;;;;;;;5009386;28;136667;-67
2022/06/25 12:20:54;;;;;;;;;;;;;;;;;;5000967;28;132092;-67
2022/06/25 12:23:20;;;;;;;;;;;;;;;;;;5006323;28;118293;-67
2022/06/25 12:25:47;;;;;;;;;;;;;;;;;;5008324;28;129335;-66
2022/06/25 12:28:13;;;;;;;;;;;;;;;;;;4997859;28;132043;-66
2022/06/25 12:30:39;;;;;;;;;;;;;;;;;;5003183;28;115350;-66
2022/06/25 12:33:06;;;;;;;;;;;;;;;;;;4997262;28;137903;-66
2022/06/25 12:35:33;;;;;;;;;;;;;;;;;;5008912;28;137355;-66
2022/06/25 12:38:00;;;;;;;;;;;;;;;;;;5011643;27;106992;-66
2022/06/25 12:40:26;;;;;;;;;;;;;;;;;;4998902;27;138391;-67
2022/06/25 12:42:53;;;;;;;;;;;;;;;;;;5004725;28;113124;-67
2022/06/25 12:45:19;;;;;;;;;;;;;;;;;;4995133;28;135808;-67
2022/06/25 12:47:45;;;;;;;;;;;;;;;;;;5007816;28;130950;-67
2022/06/25 12:50:11;;;;;;;;;;;;;;;;;;5006501;27;107873;-67
2022/06/25 12:52:38;;;;;;;;;;;;;;;;;;5002794;28;120522;-67
2022/06/25 12:55:04;;;;;;;;;;;;;;;;;;5007104;27;134122;-67
2022/06/25 12:57:30;;;;;;;;;;;;;;;;;;5011617;27;107940;-67
2022/06/25 12:59:57;;;;;;;;;;;;;;;;;;5005976;27;135694;-67
2022/06/25 13:02:28;;;;;;;;;;;;;;;;;;5001256;28;118706;-67
2022/06/25 13:04:55;;;;;;;;;;;;;;;;;;5004138;28;107766;-67
2022/06/25 13:07:21;;;;;;;;;;;;;;;;;;5005757;27;115520;-67
2022/06/25 13:09:48;;;;;;;;;;;;;;;;;;4999703;28;122066;-67
2022/06/25 13:12:23;;;;;;;;;;;;;;;;;;5007563;28;109304;-67
2022/06/25 13:14:51;;;;;;;;;;;;;;;;;;4995059;28;127918;-67
2022/06/25 13:17:18;;;;;;;;;;;;;;;;;;4996471;27;108925;-67
2022/06/25 13:19:45;;;;;;;;;;;;;;;;;;5007753;27;107719;-67
2022/06/25 13:22:11;;;;;;;;;;;;;;;;;;4997384;28;123025;-67
2022/06/25 13:24:37;;;;;;;;;;;;;;;;;;5007915;28;136083;-67
2022/06/25 13:27:04;;;;;;;;;;;;;;;;;;5007530;28;132192;-67
2022/06/25 13:29:30;;;;;;;;;;;;;;;;;;4999103;28;122738;-67
2022/06/25 13:31:59;;;;;;;;;;;;;;;;;;5004473;28;135654;-67
2022/06/25 13:34:26;;;;;;;;;;;;;;;;;;5002270;27;134252;-67
2022/06/25 13:36:52;;;;;;;;;;;;;;;;;;5002527;27;108596;-67
2022/06/25 13:39:19;;;;;;;;;;;;;;;;;;4993601;28;107523;-67
2022/06/25 13:41:45;;;;;;;;;;;;;;;;;;5009298;28;137577;-67
2022/06/25 13:44:12;;;;;;;;;;;;;;;;;;4997783;28;116908;-67
2022/06/25 13:46:38;;;;;;;;;;;;;;;;;;5005146;27;137746;-68
2022/06/25 13:49:04;;;;;;;;;;;;;;;;;;4992522;27;118935;-70
2022/06/25 13:51:30;;;;;;;;;;;;;;;;;;5006660;28;134083;-69
2022/06/25 13:53:57;;;;;;;;;;;;;;;;;;5002349;28;119792;-68
2022/06/25 13:56:23;;;;;;;;;;;;;;;;;;5003477;28;126012;-69
2022/06/25 13:58:49;;;;;;;;;;;;;;;;;;5003153;28;136784;-68
2022/06/25 14:01:16;;;;;;;;;;;;;;;;;;5001693;28;126225;-68
2022/06/25 14:03:42;;;;;;;;;;;;;;;;;;5010085;28;123769;-68
2022/06/25 14:06:08;;;;;;;;;;;;;;;;;;5004362;28;137137;-68
2022/06/25 14:08:35;;;;;;;;;;;;;;;;;;5003800;28;107712;-69
2022/06/25 14:11:01;;;;;;;;;;;;;;;;;;4998382;28;108292;-69
2022/06/25 14:13:28;;;;;;;;;;;;;;;;;;4996710;28;137946;-69
2022/06/25 14:15:54;;;;;;;;;;;;;;;;;;5000040;27;112249;-68
2022/06/25 14:18:21;;;;;;;;;;;;;;;;;;4996131;27;126233;-68
2022/06/25 14:20:47;;;;;;;;;;;;;;;;;;4999531;27;136154;-68
2022/06/25 14:23:13;;;;;;;;;;;;;;;;;;5001070;27;123964;-68
2022/06/25 14:25:40;;;;;;;;;;;;;;;;;;5003853;27;108301;-69
2022/06/25 14:28:06;;;;;;;;;;;;;;;;;;5002869;27;112147;-70
2022/06/25 14:30:32;;;;;;;;;;;;;;;;;;4999145;27;138261;-69
2022/06/25 14:32:59;;;;;;;;;;;;;;;;;;5002461;27;114929;-71
2022/06/25 14:35:25;;;;;;;;;;;;;;;;;;4998139;27;124837;-69
2022/06/25 14:43:22;;;;;;;;;;;;;;;;;;5002078;27;109637;-68
2022/06/25 14:45:48;;;;;;;;;;;;;;;;;;4997739;28;138155;-68
2022/06/25 14:48:14;;;;;;;;;;;;;;;;;;5006586;28;109303;-68
2022/06/25 14:50:41;;;;;;;;;;;;;;;;;;5005396;28;128510;-68
2022/06/25 14:53:07;;;;;;;;;;;;;;;;;;5002004;27;133041;-68
2022/06/25 14:55:33;;;;;;;;;;;;;;;;;;5001074;27;116401;-67
2022/06/25 14:58:00;;;;;;;;;;;;;;;;;;5002573;27;134146;-68
2022/06/25 15:00:26;;;;;;;;;;;;;;;;;;5003160;28;139027;-67
2022/06/25 15:02:52;;;;;;;;;;;;;;;;;;5007828;27;110347;-67
2022/06/25 15:05:19;;;;;;;;;;;;;;;;;;5002968;27;130056;-68
2022/06/25 15:07:47;;;;;;;;;;;;;;;;;;5010817;28;139453;-67
2022/06/25 15:10:13;;;;;;;;;;;;;;;;;;5000487;27;108753;-67
2022/06/25 15:12:39;;;;;;;;;;;;;;;;;;5002630;27;120263;-67
2022/06/25 15:15:06;;;;;;;;;;;;;;;;;;5009961;27;124802;-67
2022/06/25 15:17:33;;;;;;;;;;;;;;;;;;5006438;27;111312;-68
2022/06/25 15:19:59;;;;;;;;;;;;;;;;;;5005147;27;137080;-67
2022/06/25 15:22:26;;;;;;;;;;;;;;;;;;5009110;28;111237;-67
2022/06/25 15:24:52;;;;;;;;;;;;;;;;;;5002178;28;138599;-67
2022/06/25 15:27:19;;;;;;;;;;;;;;;;;;5005938;27;137482;-67
2022/06/25 15:29:45;;;;;;;;;;;;;;;;;;5009571;27;113936;-67
2022/06/25 15:32:13;;;;;;;;;;;;;;;;;;5008269;28;134365;-68
2022/06/25 15:34:39;;;;;;;;;;;;;;;;;;5008877;27;108012;-68
2022/06/25 15:37:06;;;;;;;;;;;;;;;;;;5003392;28;108274;-68
2022/06/25 15:39:32;;;;;;;;;;;;;;;;;;5019160;27;136481;-68
2022/06/25 15:41:58;;;;;;;;;;;;;;;;;;4996101;27;116474;-68
2022/06/25 15:44:26;;;;;;;;;;;;;;;;;;5002352;27;137501;-69
2022/06/25 15:46:52;;;;;;;;;;;;;;;;;;5004903;28;135615;-70
2022/06/25 15:49:19;;;;;;;;;;;;;;;;;;5006114;27;118737;-70
2022/06/25 15:51:45;;;;;;;;;;;;;;;;;;5014832;27;108597;-70
2022/06/25 15:54:12;;;;;;;;;;;;;;;;;;5006418;27;109125;-69
2022/06/25 15:56:39;;;;;;;;;;;;;;;;;;5005165;28;137854;-68
2022/06/25 16:01:51;;;;;;;;;;;;;;;;;;5002846;28;116389;-68
2022/06/25 16:04:17;;;;;;;;;;;;;;;;;;5006763;27;136264;-79
2022/06/25 16:06:43;;;;;;;;;;;;;;;;;;5001522;27;138246;-68
2022/06/25 16:09:12;;;;;;;;;;;;;;;;;;5002493;28;109391;-68
2022/06/25 16:11:38;;;;;;;;;;;;;;;;;;4995523;27;130246;-69
2022/06/25 16:14:08;;;;;;;;;;;;;;;;;;5008807;27;133137;-68
2022/06/25 16:16:34;;;;;;;;;;;;;;;;;;5008885;27;136665;-69
2022/06/25 16:19:00;;;;;;;;;;;;;;;;;;5002354;27;122802;-69
2022/06/25 16:21:27;;;;;;;;;;;;;;;;;;5002027;27;123791;-70
2022/06/25 16:23:53;;;;;;;;;;;;;;;;;;5004248;27;121830;-70
2022/06/25 16:26:19;;;;;;;;;;;;;;;;;;5000472;27;129648;-70
2022/06/25 16:28:46;;;;;;;;;;;;;;;;;;5001296;27;107291;-70
2022/06/25 16:31:12;;;;;;;;;;;;;;;;;;5000496;27;136605;-70
2022/06/25 16:33:38;;;;;;;;;;;;;;;;;;4999262;27;137494;-69
2022/06/25 16:36:05;;;;;;;;;;;;;;;;;;5010380;28;114406;-71
2022/06/25 16:38:31;;;;;;;;;;;;;;;;;;5005965;27;108218;-71
2022/06/25 16:40:58;;;;;;;;;;;;;;;;;;5009468;28;115448;-71
2022/06/25 16:44:00;;;;;;;;;;;;;;;;;;5003798;28;135750;-72
2022/06/25 16:46:11;;;;;;;;;;;;;;;;;;5003889;27;109964;-71
2022/06/25 16:48:37;;;;;;;;;;;;;;;;;;5002668;28;106980;-73
2022/06/25 16:51:06;;;;;;;;;;;;;;;;;;4999189;27;108094;-69